Aviation Digital Data Service (ADDS)

Output produced by METARs form (1707 UTC 24 April 2017)
found at http://www.aviationweather.gov/adds/metars/
 
HEAX 241600Z 36012KT 9999 SCT020 18/07 Q1021 NOSIG
TAF HEAX 241100Z 2412/2518 35011KT 9999 SCT020
       
HEBA 241600Z 35011KT CAVOK 18/08 Q1020 NOSIG
TAF HEBA 241100Z 2412/2518 35012KT 9999 SCT020
       
HESN 241600Z 35010KT CAVOK 30/M09 Q1011 NOSIG
TAF HESN 241100Z 2412/2518 35012G27KT CAVOK 
     PROB40 
     TEMPO 2412/2418 4000 SA
       
HEAT 241600Z 34016KT CAVOK 23/05 Q1016 NOSIG
TAF HEAT 241100Z 2412/2518 35015G26KT CAVOK 
     PROB40 
     TEMPO 2412/2418 3000 SA 
     PROB30 
     TEMPO 2415/2418 1000
       
HECA 241700Z 01015KT CAVOK 21/09 Q1019 NOSIG
TAF COR HECA 241100Z 2412/2518 02010G20KT 9999 FEW025 SCT070 
     TEMPO 2503/2506 02006KT 6000 NSC
       
HEAR 241600Z 01007KT 9999 SCT030 18/10 Q1019 NOSIG
TAF HEAR 241700Z 2418/2524 34008KT 9999 SCT025 
     TEMPO 2422/2507 VRB03KT
       
HEGN 241600Z 35023KT 3000 SA NSC 25/05 Q1011 NOSIG
TAF HEGN 241700Z 2418/2524 33018G28KT 6000 NSC 
     TEMPO 2418/2504 4000 SA 
     PROB40 
     TEMPO 2418/2422 2000 SA
       
HELX 241600Z 00000KT CAVOK 28/08 Q1011 NOSIG
TAF HELX 241100Z 2412/2518 33008KT CAVOK 
     TEMPO 2412/2418 VRB03KT 4000 HZ
       
HEMM 241600Z 36013KT 9999 SCT020 18/11 Q1021 NOSIG
TAF HEMM 241100Z 2412/2518 36012KT 9999 SCT020
       
HEPS 241600Z 34013KT 9999 SCT025 18/12 Q1020 NOSIG
TAF HEPS 241100Z 2412/2518 34013KT 9999 SCT025 SCT030
       
HESH 241600Z 36017KT CAVOK 26/09 Q1010 NOSIG
TAF HESH 241700Z 2418/2524 01012G22KT CAVOK
       
TAF HETB 241700Z 2418/2524 02010G20KT 6000 NSC